sensor_id;sensor_type;location;lat;lon;timestamp;P1;durP1;ratioP1;P2;durP2;ratioP2
49614;SDS011;35517;45.272;9.984;2023-02-28T00:02:18;10.52;;;5.90;;
49614;SDS011;35517;45.272;9.984;2023-02-28T00:04:45;10.00;;;5.35;;
49614;SDS011;35517;45.272;9.984;2023-02-28T00:07:18;13.40;;;5.60;;
49614;SDS011;35517;45.272;9.984;2023-02-28T00:09:45;14.75;;;6.13;;
49614;SDS011;35517;45.272;9.984;2023-02-28T00:12:11;15.48;;;8.25;;
49614;SDS011;35517;45.272;9.984;2023-02-28T00:14:38;14.63;;;6.35;;
49614;SDS011;35517;45.272;9.984;2023-02-28T00:17:05;9.50;;;5.93;;
49614;SDS011;35517;45.272;9.984;2023-02-28T00:19:31;13.32;;;5.38;;
49614;SDS011;35517;45.272;9.984;2023-02-28T00:21:58;12.32;;;5.82;;
49614;SDS011;35517;45.272;9.984;2023-02-28T00:24:24;9.32;;;5.97;;
49614;SDS011;35517;45.272;9.984;2023-02-28T00:26:51;10.60;;;6.03;;
49614;SDS011;35517;45.272;9.984;2023-02-28T00:29:18;13.13;;;5.68;;
49614;SDS011;35517;45.272;9.984;2023-02-28T00:31:44;14.75;;;5.55;;
49614;SDS011;35517;45.272;9.984;2023-02-28T00:34:11;11.60;;;6.15;;
49614;SDS011;35517;45.272;9.984;2023-02-28T00:36:37;14.80;;;7.10;;
49614;SDS011;35517;45.272;9.984;2023-02-28T00:39:04;17.67;;;6.10;;
49614;SDS011;35517;45.272;9.984;2023-02-28T00:41:31;12.25;;;6.10;;
49614;SDS011;35517;45.272;9.984;2023-02-28T00:43:57;19.52;;;6.15;;
49614;SDS011;35517;45.272;9.984;2023-02-28T00:46:24;10.80;;;5.30;;
49614;SDS011;35517;45.272;9.984;2023-02-28T00:48:50;8.40;;;5.30;;
49614;SDS011;35517;45.272;9.984;2023-02-28T00:51:17;11.10;;;5.38;;
49614;SDS011;35517;45.272;9.984;2023-02-28T00:53:43;11.48;;;5.25;;
49614;SDS011;35517;45.272;9.984;2023-02-28T00:56:10;13.45;;;6.43;;
49614;SDS011;35517;45.272;9.984;2023-02-28T00:58:37;13.18;;;5.45;;
49614;SDS011;35517;45.272;9.984;2023-02-28T01:01:03;13.52;;;6.28;;
49614;SDS011;35517;45.272;9.984;2023-02-28T01:03:30;11.15;;;6.13;;
49614;SDS011;35517;45.272;9.984;2023-02-28T01:05:57;13.52;;;6.32;;
49614;SDS011;35517;45.272;9.984;2023-02-28T01:08:24;11.50;;;5.63;;
49614;SDS011;35517;45.272;9.984;2023-02-28T01:10:51;10.55;;;5.43;;
49614;SDS011;35517;45.272;9.984;2023-02-28T01:13:18;13.32;;;5.43;;
49614;SDS011;35517;45.272;9.984;2023-02-28T01:15:49;12.55;;;5.55;;
49614;SDS011;35517;45.272;9.984;2023-02-28T01:18:17;10.90;;;5.53;;
49614;SDS011;35517;45.272;9.984;2023-02-28T01:20:43;10.52;;;5.28;;
49614;SDS011;35517;45.272;9.984;2023-02-28T01:23:11;13.10;;;7.80;;
49614;SDS011;35517;45.272;9.984;2023-02-28T01:25:38;9.85;;;5.75;;
49614;SDS011;35517;45.272;9.984;2023-02-28T01:28:05;10.98;;;5.72;;
49614;SDS011;35517;45.272;9.984;2023-02-28T01:30:32;10.43;;;5.88;;
49614;SDS011;35517;45.272;9.984;2023-02-28T01:32:59;13.90;;;6.10;;
49614;SDS011;35517;45.272;9.984;2023-02-28T01:35:26;14.40;;;7.43;;
49614;SDS011;35517;45.272;9.984;2023-02-28T01:37:53;14.45;;;5.75;;
49614;SDS011;35517;45.272;9.984;2023-02-28T01:40:20;8.73;;;5.82;;
49614;SDS011;35517;45.272;9.984;2023-02-28T01:42:46;9.90;;;5.65;;
49614;SDS011;35517;45.272;9.984;2023-02-28T01:45:26;12.82;;;6.57;;
49614;SDS011;35517;45.272;9.984;2023-02-28T01:48:06;10.50;;;6.88;;
49614;SDS011;35517;45.272;9.984;2023-02-28T01:50:35;11.40;;;6.35;;
49614;SDS011;35517;45.272;9.984;2023-02-28T01:53:04;10.98;;;6.30;;
49614;SDS011;35517;45.272;9.984;2023-02-28T01:55:32;11.32;;;6.00;;
49614;SDS011;35517;45.272;9.984;2023-02-28T01:58:00;12.75;;;5.72;;
49614;SDS011;35517;45.272;9.984;2023-02-28T02:00:28;15.27;;;6.88;;
49614;SDS011;35517;45.272;9.984;2023-02-28T02:02:57;13.75;;;5.18;;
49614;SDS011;35517;45.272;9.984;2023-02-28T02:05:26;10.48;;;6.13;;
49614;SDS011;35517;45.272;9.984;2023-02-28T02:07:54;11.25;;;6.22;;
49614;SDS011;35517;45.272;9.984;2023-02-28T02:10:27;10.80;;;5.18;;
49614;SDS011;35517;45.272;9.984;2023-02-28T02:17:48;11.10;;;5.78;;
49614;SDS011;35517;45.272;9.984;2023-02-28T02:25:42;14.77;;;5.82;;
49614;SDS011;35517;45.272;9.984;2023-02-28T02:38:39;7.80;;;5.35;;
49614;SDS011;35517;45.272;9.984;2023-02-28T02:41:13;13.23;;;6.80;;
49614;SDS011;35517;45.272;9.984;2023-02-28T02:46:10;10.00;;;6.28;;
49614;SDS011;35517;45.272;9.984;2023-02-28T02:48:44;10.13;;;6.07;;
49614;SDS011;35517;45.272;9.984;2023-02-28T02:51:13;9.57;;;5.47;;
49614;SDS011;35517;45.272;9.984;2023-02-28T02:53:42;11.13;;;7.10;;
49614;SDS011;35517;45.272;9.984;2023-02-28T02:56:10;14.73;;;6.57;;
49614;SDS011;35517;45.272;9.984;2023-02-28T02:58:40;12.45;;;5.72;;
49614;SDS011;35517;45.272;9.984;2023-02-28T03:01:10;13.00;;;5.55;;
49614;SDS011;35517;45.272;9.984;2023-02-28T03:03:38;9.80;;;5.65;;
49614;SDS011;35517;45.272;9.984;2023-02-28T03:06:05;8.00;;;5.63;;
49614;SDS011;35517;45.272;9.984;2023-02-28T03:08:36;9.65;;;6.38;;
49614;SDS011;35517;45.272;9.984;2023-02-28T03:11:05;9.95;;;5.60;;
49614;SDS011;35517;45.272;9.984;2023-02-28T03:26:28;9.07;;;5.65;;
49614;SDS011;35517;45.272;9.984;2023-02-28T03:29:13;9.52;;;5.50;;
49614;SDS011;35517;45.272;9.984;2023-02-28T03:31:53;8.13;;;6.20;;
49614;SDS011;35517;45.272;9.984;2023-02-28T03:34:36;11.57;;;6.32;;
49614;SDS011;35517;45.272;9.984;2023-02-28T03:37:05;17.17;;;7.40;;
49614;SDS011;35517;45.272;9.984;2023-02-28T03:39:36;8.23;;;5.57;;
49614;SDS011;35517;45.272;9.984;2023-02-28T03:42:05;11.68;;;6.65;;
49614;SDS011;35517;45.272;9.984;2023-02-28T03:44:38;12.02;;;6.45;;
49614;SDS011;35517;45.272;9.984;2023-02-28T03:47:10;11.43;;;6.30;;
49614;SDS011;35517;45.272;9.984;2023-02-28T03:49:43;10.25;;;5.68;;
49614;SDS011;35517;45.272;9.984;2023-02-28T03:54:45;10.93;;;6.18;;
49614;SDS011;35517;45.272;9.984;2023-02-28T03:57:27;10.23;;;5.60;;
49614;SDS011;35517;45.272;9.984;2023-02-28T04:00:02;8.43;;;5.55;;
49614;SDS011;35517;45.272;9.984;2023-02-28T04:02:38;6.97;;;5.13;;
49614;SDS011;35517;45.272;9.984;2023-02-28T04:05:05;11.25;;;5.25;;
49614;SDS011;35517;45.272;9.984;2023-02-28T04:07:32;8.15;;;5.65;;
49614;SDS011;35517;45.272;9.984;2023-02-28T04:09:59;6.28;;;4.55;;
49614;SDS011;35517;45.272;9.984;2023-02-28T04:12:25;9.38;;;5.28;;
49614;SDS011;35517;45.272;9.984;2023-02-28T04:14:52;7.00;;;4.60;;
49614;SDS011;35517;45.272;9.984;2023-02-28T04:17:18;7.63;;;5.13;;
49614;SDS011;35517;45.272;9.984;2023-02-28T04:19:45;7.97;;;5.28;;
49614;SDS011;35517;45.272;9.984;2023-02-28T04:22:12;8.48;;;5.50;;
49614;SDS011;35517;45.272;9.984;2023-02-28T04:24:40;7.40;;;5.47;;
49614;SDS011;35517;45.272;9.984;2023-02-28T04:27:07;10.00;;;4.90;;
49614;SDS011;35517;45.272;9.984;2023-02-28T04:29:35;10.23;;;5.13;;
49614;SDS011;35517;45.272;9.984;2023-02-28T04:32:01;9.32;;;5.63;;
49614;SDS011;35517;45.272;9.984;2023-02-28T04:34:29;7.30;;;4.57;;
49614;SDS011;35517;45.272;9.984;2023-02-28T04:36:56;8.65;;;5.43;;
49614;SDS011;35517;45.272;9.984;2023-02-28T04:39:23;9.07;;;5.57;;
49614;SDS011;35517;45.272;9.984;2023-02-28T04:41:50;9.90;;;5.72;;
49614;SDS011;35517;45.272;9.984;2023-02-28T04:44:17;8.68;;;5.20;;
49614;SDS011;35517;45.272;9.984;2023-02-28T04:46:43;9.55;;;5.10;;
49614;SDS011;35517;45.272;9.984;2023-02-28T04:49:13;12.18;;;5.45;;
49614;SDS011;35517;45.272;9.984;2023-02-28T04:51:41;17.50;;;6.50;;
49614;SDS011;35517;45.272;9.984;2023-02-28T04:54:07;7.55;;;5.72;;
49614;SDS011;35517;45.272;9.984;2023-02-28T04:56:35;11.52;;;5.30;;
49614;SDS011;35517;45.272;9.984;2023-02-28T04:59:01;13.13;;;6.35;;
49614;SDS011;35517;45.272;9.984;2023-02-28T05:01:29;10.00;;;5.70;;
49614;SDS011;35517;45.272;9.984;2023-02-28T05:03:56;9.73;;;5.80;;
49614;SDS011;35517;45.272;9.984;2023-02-28T05:06:24;10.60;;;6.32;;
49614;SDS011;35517;45.272;9.984;2023-02-28T05:08:51;10.55;;;6.53;;
49614;SDS011;35517;45.272;9.984;2023-02-28T05:11:19;11.43;;;6.82;;
49614;SDS011;35517;45.272;9.984;2023-02-28T05:13:46;9.43;;;6.57;;
49614;SDS011;35517;45.272;9.984;2023-02-28T05:16:12;13.63;;;6.72;;
49614;SDS011;35517;45.272;9.984;2023-02-28T05:18:39;11.40;;;6.20;;
49614;SDS011;35517;45.272;9.984;2023-02-28T05:21:12;11.70;;;6.85;;
49614;SDS011;35517;45.272;9.984;2023-02-28T05:23:44;16.55;;;7.40;;
49614;SDS011;35517;45.272;9.984;2023-02-28T05:26:10;15.20;;;7.38;;
49614;SDS011;35517;45.272;9.984;2023-02-28T05:28:37;13.50;;;6.80;;
49614;SDS011;35517;45.272;9.984;2023-02-28T05:31:03;11.13;;;6.93;;
49614;SDS011;35517;45.272;9.984;2023-02-28T05:33:30;13.80;;;7.90;;
49614;SDS011;35517;45.272;9.984;2023-02-28T05:35:56;13.43;;;7.60;;
49614;SDS011;35517;45.272;9.984;2023-02-28T05:38:23;10.60;;;6.30;;
49614;SDS011;35517;45.272;9.984;2023-02-28T05:40:49;10.68;;;6.53;;
49614;SDS011;35517;45.272;9.984;2023-02-28T05:43:17;13.25;;;7.43;;
49614;SDS011;35517;45.272;9.984;2023-02-28T05:45:43;14.90;;;8.32;;
49614;SDS011;35517;45.272;9.984;2023-02-28T05:48:10;16.83;;;8.00;;
49614;SDS011;35517;45.272;9.984;2023-02-28T05:50:36;10.75;;;7.63;;
49614;SDS011;35517;45.272;9.984;2023-02-28T05:53:03;17.90;;;9.13;;
49614;SDS011;35517;45.272;9.984;2023-02-28T05:55:29;19.42;;;8.52;;
49614;SDS011;35517;45.272;9.984;2023-02-28T05:57:56;19.63;;;8.20;;
49614;SDS011;35517;45.272;9.984;2023-02-28T06:00:23;15.90;;;8.57;;
49614;SDS011;35517;45.272;9.984;2023-02-28T06:02:50;14.20;;;8.68;;
49614;SDS011;35517;45.272;9.984;2023-02-28T06:05:19;17.08;;;8.93;;
49614;SDS011;35517;45.272;9.984;2023-02-28T06:07:46;13.02;;;8.43;;
49614;SDS011;35517;45.272;9.984;2023-02-28T06:10:12;15.68;;;8.40;;
49614;SDS011;35517;45.272;9.984;2023-02-28T06:12:39;12.50;;;8.48;;
49614;SDS011;35517;45.272;9.984;2023-02-28T06:15:07;18.80;;;8.75;;
49614;SDS011;35517;45.272;9.984;2023-02-28T06:17:34;15.32;;;9.32;;
49614;SDS011;35517;45.272;9.984;2023-02-28T06:20:00;14.38;;;9.02;;
49614;SDS011;35517;45.272;9.984;2023-02-28T06:22:27;22.15;;;11.40;;
49614;SDS011;35517;45.272;9.984;2023-02-28T06:24:54;15.18;;;8.43;;
49614;SDS011;35517;45.272;9.984;2023-02-28T06:27:22;13.30;;;9.02;;
49614;SDS011;35517;45.272;9.984;2023-02-28T06:29:49;16.70;;;8.70;;
49614;SDS011;35517;45.272;9.984;2023-02-28T06:32:15;14.65;;;8.75;;
49614;SDS011;35517;45.272;9.984;2023-02-28T06:34:42;18.95;;;10.30;;
49614;SDS011;35517;45.272;9.984;2023-02-28T06:37:08;18.42;;;9.48;;
49614;SDS011;35517;45.272;9.984;2023-02-28T06:39:35;18.60;;;10.45;;
49614;SDS011;35517;45.272;9.984;2023-02-28T06:42:02;20.63;;;10.73;;
49614;SDS011;35517;45.272;9.984;2023-02-28T06:44:28;24.48;;;10.55;;
49614;SDS011;35517;45.272;9.984;2023-02-28T06:47:01;19.98;;;9.98;;
49614;SDS011;35517;45.272;9.984;2023-02-28T06:49:29;18.60;;;9.55;;
49614;SDS011;35517;45.272;9.984;2023-02-28T06:51:56;14.73;;;8.57;;
49614;SDS011;35517;45.272;9.984;2023-02-28T06:54:22;16.25;;;8.65;;
49614;SDS011;35517;45.272;9.984;2023-02-28T06:56:49;19.25;;;8.77;;
49614;SDS011;35517;45.272;9.984;2023-02-28T06:59:16;15.07;;;9.07;;
49614;SDS011;35517;45.272;9.984;2023-02-28T07:01:42;12.85;;;8.40;;
49614;SDS011;35517;45.272;9.984;2023-02-28T07:04:09;13.50;;;8.57;;
49614;SDS011;35517;45.272;9.984;2023-02-28T07:06:36;12.63;;;8.82;;
49614;SDS011;35517;45.272;9.984;2023-02-28T07:09:02;11.95;;;8.02;;
49614;SDS011;35517;45.272;9.984;2023-02-28T07:11:29;16.27;;;9.68;;
49614;SDS011;35517;45.272;9.984;2023-02-28T07:13:56;12.52;;;7.90;;
49614;SDS011;35517;45.272;9.984;2023-02-28T07:16:30;18.58;;;10.30;;
49614;SDS011;35517;45.272;9.984;2023-02-28T07:18:57;19.55;;;9.55;;
49614;SDS011;35517;45.272;9.984;2023-02-28T07:21:24;14.70;;;9.07;;
49614;SDS011;35517;45.272;9.984;2023-02-28T07:23:51;15.32;;;9.52;;
49614;SDS011;35517;45.272;9.984;2023-02-28T07:26:18;17.52;;;9.85;;
49614;SDS011;35517;45.272;9.984;2023-02-28T07:28:46;15.63;;;9.93;;
49614;SDS011;35517;45.272;9.984;2023-02-28T07:31:14;18.50;;;9.10;;
49614;SDS011;35517;45.272;9.984;2023-02-28T07:33:41;17.85;;;9.55;;
49614;SDS011;35517;45.272;9.984;2023-02-28T07:36:15;19.50;;;9.85;;
49614;SDS011;35517;45.272;9.984;2023-02-28T07:38:44;25.23;;;11.73;;
49614;SDS011;35517;45.272;9.984;2023-02-28T07:41:14;14.35;;;8.73;;
49614;SDS011;35517;45.272;9.984;2023-02-28T07:43:41;19.52;;;10.65;;
49614;SDS011;35517;45.272;9.984;2023-02-28T07:46:08;16.98;;;10.10;;
49614;SDS011;35517;45.272;9.984;2023-02-28T07:48:35;15.23;;;10.02;;
49614;SDS011;35517;45.272;9.984;2023-02-28T07:51:02;17.42;;;9.48;;
49614;SDS011;35517;45.272;9.984;2023-02-28T07:53:29;18.63;;;10.05;;
49614;SDS011;35517;45.272;9.984;2023-02-28T07:55:56;15.73;;;8.65;;
49614;SDS011;35517;45.272;9.984;2023-02-28T07:58:23;18.75;;;10.35;;
49614;SDS011;35517;45.272;9.984;2023-02-28T08:00:50;18.55;;;10.32;;
49614;SDS011;35517;45.272;9.984;2023-02-28T08:03:17;23.20;;;10.48;;
49614;SDS011;35517;45.272;9.984;2023-02-28T08:05:44;14.20;;;9.93;;
49614;SDS011;35517;45.272;9.984;2023-02-28T08:08:11;18.50;;;9.43;;
49614;SDS011;35517;45.272;9.984;2023-02-28T08:10:37;20.02;;;11.55;;
49614;SDS011;35517;45.272;9.984;2023-02-28T08:13:04;20.33;;;10.25;;
49614;SDS011;35517;45.272;9.984;2023-02-28T08:15:31;19.25;;;10.10;;
49614;SDS011;35517;45.272;9.984;2023-02-28T08:17:57;26.27;;;11.35;;
49614;SDS011;35517;45.272;9.984;2023-02-28T08:20:24;19.17;;;11.32;;
49614;SDS011;35517;45.272;9.984;2023-02-28T08:22:51;14.07;;;8.25;;
49614;SDS011;35517;45.272;9.984;2023-02-28T08:25:17;15.23;;;8.57;;
49614;SDS011;35517;45.272;9.984;2023-02-28T08:27:44;14.18;;;8.80;;
49614;SDS011;35517;45.272;9.984;2023-02-28T08:30:11;13.55;;;8.20;;
49614;SDS011;35517;45.272;9.984;2023-02-28T08:32:39;20.60;;;8.38;;
49614;SDS011;35517;45.272;9.984;2023-02-28T08:35:05;12.35;;;8.00;;
49614;SDS011;35517;45.272;9.984;2023-02-28T08:37:32;16.90;;;9.10;;
49614;SDS011;35517;45.272;9.984;2023-02-28T08:39:59;14.18;;;8.32;;
49614;SDS011;35517;45.272;9.984;2023-02-28T08:42:25;11.18;;;7.68;;
49614;SDS011;35517;45.272;9.984;2023-02-28T08:44:52;11.27;;;7.57;;
49614;SDS011;35517;45.272;9.984;2023-02-28T08:47:19;9.32;;;5.88;;
49614;SDS011;35517;45.272;9.984;2023-02-28T08:49:45;10.43;;;6.25;;
49614;SDS011;35517;45.272;9.984;2023-02-28T08:52:12;7.60;;;4.55;;
49614;SDS011;35517;45.272;9.984;2023-02-28T08:54:39;6.80;;;4.18;;
49614;SDS011;35517;45.272;9.984;2023-02-28T08:57:05;8.65;;;4.28;;
49614;SDS011;35517;45.272;9.984;2023-02-28T08:59:32;8.25;;;4.45;;
49614;SDS011;35517;45.272;9.984;2023-02-28T09:01:58;7.50;;;4.47;;
49614;SDS011;35517;45.272;9.984;2023-02-28T09:04:25;7.45;;;4.00;;
49614;SDS011;35517;45.272;9.984;2023-02-28T09:06:52;8.55;;;4.63;;
49614;SDS011;35517;45.272;9.984;2023-02-28T09:09:19;10.80;;;5.95;;
49614;SDS011;35517;45.272;9.984;2023-02-28T09:11:45;7.03;;;4.65;;
49614;SDS011;35517;45.272;9.984;2023-02-28T09:14:12;9.77;;;5.07;;
49614;SDS011;35517;45.272;9.984;2023-02-28T09:16:38;10.63;;;4.63;;
49614;SDS011;35517;45.272;9.984;2023-02-28T09:19:05;9.27;;;5.03;;
49614;SDS011;35517;45.272;9.984;2023-02-28T09:21:32;7.18;;;4.18;;
49614;SDS011;35517;45.272;9.984;2023-02-28T09:23:58;7.72;;;4.40;;
49614;SDS011;35517;45.272;9.984;2023-02-28T09:26:27;9.80;;;5.30;;
49614;SDS011;35517;45.272;9.984;2023-02-28T09:28:54;9.57;;;4.45;;
49614;SDS011;35517;45.272;9.984;2023-02-28T09:31:22;9.18;;;4.32;;
49614;SDS011;35517;45.272;9.984;2023-02-28T09:33:50;7.20;;;4.03;;
49614;SDS011;35517;45.272;9.984;2023-02-28T09:36:17;7.10;;;4.72;;
49614;SDS011;35517;45.272;9.984;2023-02-28T09:38:44;9.05;;;5.00;;
49614;SDS011;35517;45.272;9.984;2023-02-28T09:41:22;10.20;;;4.07;;
49614;SDS011;35517;45.272;9.984;2023-02-28T09:43:50;7.78;;;4.50;;
49614;SDS011;35517;45.272;9.984;2023-02-28T09:48:45;6.68;;;4.47;;
49614;SDS011;35517;45.272;9.984;2023-02-28T09:51:26;9.80;;;5.38;;
49614;SDS011;35517;45.272;9.984;2023-02-28T09:53:54;6.53;;;4.60;;
49614;SDS011;35517;45.272;9.984;2023-02-28T09:56:21;7.40;;;5.25;;
49614;SDS011;35517;45.272;9.984;2023-02-28T09:59:01;12.95;;;4.95;;
49614;SDS011;35517;45.272;9.984;2023-02-28T10:06:50;13.38;;;5.95;;
49614;SDS011;35517;45.272;9.984;2023-02-28T10:09:22;11.80;;;5.25;;
49614;SDS011;35517;45.272;9.984;2023-02-28T10:11:50;7.47;;;5.07;;
49614;SDS011;35517;45.272;9.984;2023-02-28T10:14:18;7.85;;;4.28;;
49614;SDS011;35517;45.272;9.984;2023-02-28T10:16:53;11.73;;;6.88;;
49614;SDS011;35517;45.272;9.984;2023-02-28T10:21:50;6.40;;;4.07;;
49614;SDS011;35517;45.272;9.984;2023-02-28T10:26:46;7.22;;;4.50;;
49614;SDS011;35517;45.272;9.984;2023-02-28T10:29:14;13.88;;;5.20;;
49614;SDS011;35517;45.272;9.984;2023-02-28T10:31:41;8.45;;;5.60;;
49614;SDS011;35517;45.272;9.984;2023-02-28T10:34:07;7.25;;;4.65;;
49614;SDS011;35517;45.272;9.984;2023-02-28T10:36:38;8.88;;;4.97;;
49614;SDS011;35517;45.272;9.984;2023-02-28T10:39:47;10.45;;;5.32;;
49614;SDS011;35517;45.272;9.984;2023-02-28T10:41:54;9.57;;;4.88;;
49614;SDS011;35517;45.272;9.984;2023-02-28T10:44:22;9.45;;;4.55;;
49614;SDS011;35517;45.272;9.984;2023-02-28T10:46:49;10.73;;;6.00;;
49614;SDS011;35517;45.272;9.984;2023-02-28T10:49:17;9.60;;;5.05;;
49614;SDS011;35517;45.272;9.984;2023-02-28T10:51:46;7.30;;;5.18;;
49614;SDS011;35517;45.272;9.984;2023-02-28T10:54:22;8.43;;;4.80;;
49614;SDS011;35517;45.272;9.984;2023-02-28T10:57:06;10.95;;;5.90;;
49614;SDS011;35517;45.272;9.984;2023-02-28T10:59:33;9.45;;;5.68;;
49614;SDS011;35517;45.272;9.984;2023-02-28T11:02:00;11.88;;;5.47;;
49614;SDS011;35517;45.272;9.984;2023-02-28T11:07:02;10.57;;;5.95;;
49614;SDS011;35517;45.272;9.984;2023-02-28T11:11:58;11.68;;;6.47;;
49614;SDS011;35517;45.272;9.984;2023-02-28T11:14:25;11.02;;;5.80;;
49614;SDS011;35517;45.272;9.984;2023-02-28T11:16:53;15.30;;;7.53;;
49614;SDS011;35517;45.272;9.984;2023-02-28T11:19:22;9.00;;;5.70;;
49614;SDS011;35517;45.272;9.984;2023-02-28T11:22:00;18.95;;;7.35;;
49614;SDS011;35517;45.272;9.984;2023-02-28T11:24:35;9.10;;;6.35;;
49614;SDS011;35517;45.272;9.984;2023-02-28T11:27:03;8.75;;;5.72;;
49614;SDS011;35517;45.272;9.984;2023-02-28T11:29:30;10.25;;;5.25;;
49614;SDS011;35517;45.272;9.984;2023-02-28T11:32:02;8.70;;;6.22;;
49614;SDS011;35517;45.272;9.984;2023-02-28T11:34:29;10.95;;;5.68;;
49614;SDS011;35517;45.272;9.984;2023-02-28T11:36:57;11.55;;;5.72;;
49614;SDS011;35517;45.272;9.984;2023-02-28T11:39:25;9.02;;;5.03;;
49614;SDS011;35517;45.272;9.984;2023-02-28T11:47:06;7.55;;;5.22;;
49614;SDS011;35517;45.272;9.984;2023-02-28T11:49:38;21.50;;;10.02;;
49614;SDS011;35517;45.272;9.984;2023-02-28T11:57:28;11.10;;;6.50;;
49614;SDS011;35517;45.272;9.984;2023-02-28T12:00:12;8.63;;;6.03;;
49614;SDS011;35517;45.272;9.984;2023-02-28T12:08:23;11.48;;;7.88;;
49614;SDS011;35517;45.272;9.984;2023-02-28T12:10:56;13.02;;;7.47;;
49614;SDS011;35517;45.272;9.984;2023-02-28T12:13:26;13.75;;;7.78;;
49614;SDS011;35517;45.272;9.984;2023-02-28T12:16:17;9.88;;;7.10;;
49614;SDS011;35517;45.272;9.984;2023-02-28T12:18:50;22.13;;;7.90;;
49614;SDS011;35517;45.272;9.984;2023-02-28T12:26:47;11.20;;;7.10;;
49614;SDS011;35517;45.272;9.984;2023-02-28T12:29:26;9.32;;;6.55;;
49614;SDS011;35517;45.272;9.984;2023-02-28T12:31:56;10.25;;;6.60;;
49614;SDS011;35517;45.272;9.984;2023-02-28T12:34:32;10.40;;;6.60;;
49614;SDS011;35517;45.272;9.984;2023-02-28T12:37:01;10.95;;;6.57;;
49614;SDS011;35517;45.272;9.984;2023-02-28T12:39:32;10.80;;;7.25;;
49614;SDS011;35517;45.272;9.984;2023-02-28T12:42:09;9.68;;;6.35;;
49614;SDS011;35517;45.272;9.984;2023-02-28T12:44:46;10.18;;;6.85;;
49614;SDS011;35517;45.272;9.984;2023-02-28T12:47:15;10.80;;;6.53;;
49614;SDS011;35517;45.272;9.984;2023-02-28T12:49:47;15.20;;;6.63;;
49614;SDS011;35517;45.272;9.984;2023-02-28T12:52:15;10.15;;;7.03;;
49614;SDS011;35517;45.272;9.984;2023-02-28T12:54:48;14.80;;;7.30;;
49614;SDS011;35517;45.272;9.984;2023-02-28T13:00:04;13.55;;;6.47;;
49614;SDS011;35517;45.272;9.984;2023-02-28T13:10:19;12.25;;;7.57;;
49614;SDS011;35517;45.272;9.984;2023-02-28T13:12:47;12.90;;;6.80;;
49614;SDS011;35517;45.272;9.984;2023-02-28T13:15:18;9.50;;;6.93;;
49614;SDS011;35517;45.272;9.984;2023-02-28T13:17:51;13.30;;;6.20;;
49614;SDS011;35517;45.272;9.984;2023-02-28T13:20:34;11.73;;;8.45;;
49614;SDS011;35517;45.272;9.984;2023-02-28T13:28:02;14.25;;;8.48;;
49614;SDS011;35517;45.272;9.984;2023-02-28T13:33:31;13.15;;;8.55;;
49614;SDS011;35517;45.272;9.984;2023-02-28T13:46:32;13.93;;;7.95;;
49614;SDS011;35517;45.272;9.984;2023-02-28T13:49:18;17.75;;;8.70;;
49614;SDS011;35517;45.272;9.984;2023-02-28T13:51:46;13.10;;;8.18;;
49614;SDS011;35517;45.272;9.984;2023-02-28T13:56:45;12.93;;;8.30;;
49614;SDS011;35517;45.272;9.984;2023-02-28T14:06:57;10.75;;;7.00;;
49614;SDS011;35517;45.272;9.984;2023-02-28T14:09:25;10.25;;;7.28;;
49614;SDS011;35517;45.272;9.984;2023-02-28T14:11:52;14.85;;;7.60;;
49614;SDS011;35517;45.272;9.984;2023-02-28T14:17:14;15.43;;;8.80;;
49614;SDS011;35517;45.272;9.984;2023-02-28T14:19:44;11.38;;;7.60;;
49614;SDS011;35517;45.272;9.984;2023-02-28T14:27:27;74.00;;;33.33;;
49614;SDS011;35517;45.272;9.984;2023-02-28T14:30:02;46.28;;;20.77;;
49614;SDS011;35517;45.272;9.984;2023-02-28T14:32:41;20.80;;;9.95;;
49614;SDS011;35517;45.272;9.984;2023-02-28T14:35:29;10.10;;;7.38;;
49614;SDS011;35517;45.272;9.984;2023-02-28T14:38:04;17.80;;;7.60;;
49614;SDS011;35517;45.272;9.984;2023-02-28T14:40:33;18.60;;;10.00;;
49614;SDS011;35517;45.272;9.984;2023-02-28T14:43:01;17.65;;;9.25;;
49614;SDS011;35517;45.272;9.984;2023-02-28T14:45:29;28.42;;;15.07;;
49614;SDS011;35517;45.272;9.984;2023-02-28T14:47:56;92.15;;;41.47;;
49614;SDS011;35517;45.272;9.984;2023-02-28T14:50:26;78.72;;;37.53;;
49614;SDS011;35517;45.272;9.984;2023-02-28T14:52:53;17.23;;;11.48;;
49614;SDS011;35517;45.272;9.984;2023-02-28T14:55:27;17.40;;;9.88;;
49614;SDS011;35517;45.272;9.984;2023-02-28T14:57:56;19.27;;;9.90;;
49614;SDS011;35517;45.272;9.984;2023-02-28T15:00:26;14.10;;;9.57;;
49614;SDS011;35517;45.272;9.984;2023-02-28T15:02:54;11.57;;;8.00;;
49614;SDS011;35517;45.272;9.984;2023-02-28T15:05:25;17.83;;;8.77;;
49614;SDS011;35517;45.272;9.984;2023-02-28T15:10:31;11.00;;;8.00;;
49614;SDS011;35517;45.272;9.984;2023-02-28T15:13:00;15.77;;;9.93;;
49614;SDS011;35517;45.272;9.984;2023-02-28T15:18:07;18.48;;;9.50;;
49614;SDS011;35517;45.272;9.984;2023-02-28T15:20:38;14.57;;;8.27;;
49614;SDS011;35517;45.272;9.984;2023-02-28T15:23:05;12.48;;;8.23;;
49614;SDS011;35517;45.272;9.984;2023-02-28T15:25:31;12.65;;;8.38;;
49614;SDS011;35517;45.272;9.984;2023-02-28T15:27:59;10.23;;;7.95;;
49614;SDS011;35517;45.272;9.984;2023-02-28T15:30:26;26.70;;;10.18;;
49614;SDS011;35517;45.272;9.984;2023-02-28T15:35:33;13.95;;;8.98;;
49614;SDS011;35517;45.272;9.984;2023-02-28T15:38:12;13.27;;;9.30;;
49614;SDS011;35517;45.272;9.984;2023-02-28T15:40:41;12.48;;;8.60;;
49614;SDS011;35517;45.272;9.984;2023-02-28T15:45:44;12.52;;;8.02;;
49614;SDS011;35517;45.272;9.984;2023-02-28T15:48:28;13.55;;;9.73;;
49614;SDS011;35517;45.272;9.984;2023-02-28T15:53:23;11.05;;;8.23;;
49614;SDS011;35517;45.272;9.984;2023-02-28T15:56:12;16.33;;;9.52;;
49614;SDS011;35517;45.272;9.984;2023-02-28T15:58:42;14.63;;;9.93;;
49614;SDS011;35517;45.272;9.984;2023-02-28T16:01:25;13.43;;;8.73;;
49614;SDS011;35517;45.272;9.984;2023-02-28T16:03:54;19.05;;;10.25;;
49614;SDS011;35517;45.272;9.984;2023-02-28T16:08:48;17.55;;;9.52;;
49614;SDS011;35517;45.272;9.984;2023-02-28T16:11:16;20.25;;;10.40;;
49614;SDS011;35517;45.272;9.984;2023-02-28T16:13:43;13.15;;;9.93;;
49614;SDS011;35517;45.272;9.984;2023-02-28T16:16:14;17.88;;;10.48;;
49614;SDS011;35517;45.272;9.984;2023-02-28T16:18:41;16.38;;;10.68;;
49614;SDS011;35517;45.272;9.984;2023-02-28T16:21:08;17.85;;;11.25;;
49614;SDS011;35517;45.272;9.984;2023-02-28T16:23:35;15.98;;;11.10;;
49614;SDS011;35517;45.272;9.984;2023-02-28T16:26:02;19.00;;;11.45;;
49614;SDS011;35517;45.272;9.984;2023-02-28T16:28:38;17.25;;;10.68;;
49614;SDS011;35517;45.272;9.984;2023-02-28T16:31:05;16.08;;;11.18;;
49614;SDS011;35517;45.272;9.984;2023-02-28T16:33:32;20.55;;;12.27;;
49614;SDS011;35517;45.272;9.984;2023-02-28T16:35:59;19.52;;;12.32;;
49614;SDS011;35517;45.272;9.984;2023-02-28T16:38:26;16.35;;;11.55;;
49614;SDS011;35517;45.272;9.984;2023-02-28T16:40:53;22.40;;;12.80;;
49614;SDS011;35517;45.272;9.984;2023-02-28T16:43:23;17.15;;;11.38;;
49614;SDS011;35517;45.272;9.984;2023-02-28T16:45:54;20.45;;;11.90;;
49614;SDS011;35517;45.272;9.984;2023-02-28T16:48:22;19.02;;;12.00;;
49614;SDS011;35517;45.272;9.984;2023-02-28T16:50:49;16.83;;;11.50;;
49614;SDS011;35517;45.272;9.984;2023-02-28T16:53:15;27.30;;;11.23;;
49614;SDS011;35517;45.272;9.984;2023-02-28T16:55:42;21.80;;;12.50;;
49614;SDS011;35517;45.272;9.984;2023-02-28T16:58:11;33.97;;;11.55;;
49614;SDS011;35517;45.272;9.984;2023-02-28T17:00:39;26.30;;;11.95;;
49614;SDS011;35517;45.272;9.984;2023-02-28T17:03:40;27.00;;;12.38;;
49614;SDS011;35517;45.272;9.984;2023-02-28T17:06:02;18.85;;;11.95;;
49614;SDS011;35517;45.272;9.984;2023-02-28T17:08:29;21.33;;;13.50;;